Terminal Aerodrome Forecast
Issued by NWS Pocatello, ID

Home | Current Version | Previous Version | Text Only | Print | Product List | Glossary On
Versions: 1 2 3 4 5 6 7 8 9 10 11 12 13 14 15
000
FTUS45 KPIH 301723
TAFPIH
TAF
KPIH 301723Z 3018/0118 VRB06KT P6SM SCT150 SCT250
     FM302200 22011KT P6SM VCTS FEW060CB BKN120
     FM010200 14009KT P6SM SCT100
     FM011400 22013KT P6SM VCSH BKN080=

USA.gov is the U.S. government's official web portal to all federal, state and local government web resources and services.